Time;durP1;ratioP1;P1;durP2;ratioP2;P2;SDS_P1;SDS_P2;PMS_P1;PMS_P2;Temp;Humidity;BMP_temperature;BMP_pressure;BME280_temperature;BME280_humidity;BME280_pressure;Samples;Min_cycle;Max_cycle;Signal;HPM_P1;HPM_P2
2021/12/16 00:01:56;;;;;;;19.67;9.90;;;;;;;9.48;71.28;102954.91;5058351;28;20062;-87
2021/12/16 00:32:17;;;;;;;18.85;9.07;;;;;;;9.40;72.08;102968.56;5061286;28;20571;-89
2021/12/16 00:34:43;;;;;;;19.00;9.30;;;;;;;9.32;71.79;102966.72;5030205;28;20119;-89
2021/12/16 00:37:08;;;;;;;19.63;9.63;;;;;;;9.35;72.13;102965.88;5045118;28;20135;-89
2021/12/16 00:39:36;;;;;;;18.98;9.90;;;;;;;9.40;71.68;102968.56;5044368;28;20028;-89
2021/12/16 00:42:09;;;;;;;19.25;9.57;;;;;;;9.49;71.79;102968.72;5065740;28;20024;-89
2021/12/16 00:45:03;;;;;;;19.02;9.25;;;;;;;9.41;71.61;102971.19;5047428;28;20043;-89
2021/12/16 00:50:04;;;;;;;19.73;9.32;;;;;;;9.43;71.89;102968.59;5065751;28;20040;-89
2021/12/16 00:55:44;;;;;;;20.60;9.25;;;;;;;9.24;71.89;102965.69;5057557;28;20396;-89
2021/12/16 00:58:03;;;;;;;17.38;8.25;;;;;;;9.36;71.41;102970.25;5049446;28;20500;-89
2021/12/16 01:00:30;;;;;;;16.75;8.95;;;;;;;9.32;71.60;102969.31;5064120;28;20032;-89
2021/12/16 01:03:07;;;;;;;17.88;9.00;;;;;;;9.16;72.39;102968.94;5061288;28;20033;-89
2021/12/16 01:08:28;;;;;;;19.80;9.52;;;;;;;9.28;72.00;102964.00;5043333;28;20040;-89
2021/12/16 01:49:40;;;;;;;15.32;7.15;;;;;;;9.24;71.94;103004.59;4988875;28;20070;-89
2021/12/16 01:57:28;;;;;;;12.30;7.35;;;;;;;9.26;71.96;103002.91;5036931;28;20056;-88
2021/12/16 02:00:07;;;;;;;16.25;7.25;;;;;;;9.34;71.71;103009.09;5067320;28;20104;-89
2021/12/16 02:10:13;;;;;;;12.38;6.97;;;;;;;9.27;71.61;103003.78;5050746;28;20493;-89
2021/12/16 02:13:00;;;;;;;12.80;7.75;;;;;;;9.44;71.14;102994.59;5049218;28;20041;-89
2021/12/16 02:29:30;;;;;;;13.65;6.85;;;;;;;9.27;71.12;103004.66;5046297;28;20400;-89
2021/12/16 02:32:07;;;;;;;12.95;6.68;;;;;;;9.29;71.41;103004.66;5048695;28;20060;-89
2021/12/16 02:37:15;;;;;;;14.63;7.60;;;;;;;9.26;71.45;102999.41;5037416;28;20574;-89
2021/12/16 02:39:42;;;;;;;13.45;7.30;;;;;;;9.28;71.32;103000.31;5065170;28;20047;-88
2021/12/16 02:42:17;;;;;;;17.83;8.40;;;;;;;9.24;71.78;102996.81;5047897;28;20024;-89
2021/12/16 02:50:00;;;;;;;14.48;7.40;;;;;;;9.34;71.41;102992.66;5067431;28;20048;-89
2021/12/16 02:52:27;;;;;;;16.10;8.23;;;;;;;9.28;71.59;102989.94;5046978;28;20489;-89
2021/12/16 02:54:53;;;;;;;16.98;8.23;;;;;;;9.17;71.80;102988.88;5067910;28;20063;-89
2021/12/16 02:57:20;;;;;;;17.13;8.05;;;;;;;9.15;71.92;102982.78;5063490;28;20492;-89
2021/12/16 02:59:47;;;;;;;15.20;7.53;;;;;;;9.19;71.65;102985.44;5045407;28;20366;-89
2021/12/16 03:02:16;;;;;;;17.20;7.95;;;;;;;9.21;71.54;102993.28;5064062;28;20164;-89
2021/12/16 03:04:43;;;;;;;15.50;8.77;;;;;;;9.21;71.67;102994.16;5067142;28;20043;-89
2021/12/16 03:07:13;;;;;;;17.92;8.23;;;;;;;9.14;72.35;103007.84;5067336;28;20403;-89
2021/12/16 03:14:56;;;;;;;25.25;8.68;;;;;;;9.20;71.97;103007.97;5060712;28;20472;-88
2021/12/16 03:17:38;;;;;;;19.33;8.73;;;;;;;9.22;71.84;103011.44;5062769;28;20068;-89
2021/12/16 03:20:13;;;;;;;18.38;8.80;;;;;;;9.20;71.88;103009.66;5062994;28;20032;-89
2021/12/16 03:25:35;;;;;;;17.38;8.07;;;;;;;9.30;71.62;103012.50;5064490;28;20033;-89
2021/12/16 03:36:06;;;;;;;17.63;9.48;;;;;;;9.17;72.10;103013.09;5065407;28;20087;-89
2021/12/16 03:38:36;;;;;;;16.25;7.68;;;;;;;9.29;71.47;103009.84;5057650;28;20047;-89
2021/12/16 03:41:04;;;;;;;23.08;9.77;;;;;;;9.26;71.89;103012.38;5029606;28;20441;-89
2021/12/16 03:43:31;;;;;;;22.02;9.40;;;;;;;9.32;71.75;103005.63;5048650;28;20028;-89
2021/12/16 03:48:52;;;;;;;21.65;11.07;;;;;;;9.18;72.36;103007.06;5065129;28;20037;-89
2021/12/16 03:51:30;;;;;;;30.80;12.23;;;;;;;9.21;72.52;103006.25;5060881;28;20043;-88
2021/12/16 03:54:02;;;;;;;27.67;12.35;;;;;;;9.22;73.12;103010.56;5061748;28;20032;-89
2021/12/16 03:56:28;;;;;;;31.35;13.55;;;;;;;9.28;72.54;103011.56;5050572;28;20115;-88
2021/12/16 03:58:54;;;;;;;32.53;14.00;;;;;;;9.35;72.47;103015.16;5045114;28;20043;-89
2021/12/16 04:01:23;;;;;;;30.83;13.63;;;;;;;9.32;72.54;103016.00;5059753;28;20044;-89
2021/12/16 04:03:50;;;;;;;34.33;14.50;;;;;;;9.36;72.48;103015.19;5049133;28;20040;-89
2021/12/16 04:06:19;;;;;;;34.75;15.00;;;;;;;9.41;72.41;103014.41;5060821;28;20146;-89
2021/12/16 04:08:44;;;;;;;32.55;14.90;;;;;;;9.45;72.05;103016.22;5061499;28;20842;-89
2021/12/16 04:11:21;;;;;;;30.15;12.68;;;;;;;9.31;72.97;103015.94;5066359;28;20127;-89
2021/12/16 04:14:00;;;;;;;28.48;13.23;;;;;;;9.34;72.41;103016.88;5069506;28;20043;-89
2021/12/16 04:16:34;;;;;;;38.58;14.73;;;;;;;9.28;73.10;103023.66;5043968;28;20081;-89
2021/12/16 04:19:05;;;;;;;31.48;13.43;;;;;;;9.30;72.52;103025.47;5067170;28;20063;-89
2021/12/16 04:21:31;;;;;;;31.05;14.32;;;;;;;9.22;73.00;103033.91;5044866;28;20533;-89
2021/12/16 04:23:57;;;;;;;32.38;13.68;;;;;;;9.24;73.27;103029.66;5027411;28;20085;-88
2021/12/16 04:26:27;;;;;;;32.70;13.27;;;;;;;9.34;72.76;103029.84;5060492;28;20078;-89
2021/12/16 04:28:53;;;;;;;38.22;15.13;;;;;;;9.22;72.56;103029.59;5049370;28;20128;-89
2021/12/16 04:31:20;;;;;;;32.88;14.95;;;;;;;9.23;72.91;103038.25;5058795;28;20036;-88
2021/12/16 04:33:46;;;;;;;31.02;14.68;;;;;;;9.17;73.21;103032.94;5022008;28;20036;-88
2021/12/16 04:36:13;;;;;;;32.55;13.70;;;;;;;9.19;73.50;103045.09;5041983;28;20033;-88
2021/12/16 04:38:42;;;;;;;34.28;15.35;;;;;;;9.24;72.63;103042.63;5050514;28;20132;-89
2021/12/16 04:41:11;;;;;;;30.42;13.85;;;;;;;9.29;73.07;103046.16;5031969;28;20374;-89
2021/12/16 04:43:40;;;;;;;31.67;14.02;;;;;;;9.34;72.74;103041.94;5062303;28;20101;-89
2021/12/16 04:46:12;;;;;;;29.88;14.23;;;;;;;9.33;72.92;103038.47;5054947;28;20029;-89
2021/12/16 04:48:41;;;;;;;31.05;13.30;;;;;;;9.36;72.84;103048.06;5061367;28;20033;-89
2021/12/16 04:51:08;;;;;;;28.50;12.93;;;;;;;9.23;72.88;103049.50;5063387;28;20024;-89
2021/12/16 04:53:34;;;;;;;29.27;13.60;;;;;;;9.27;72.35;103053.94;5057137;28;20028;-88
2021/12/16 04:56:00;;;;;;;31.40;14.00;;;;;;;9.23;72.86;103051.22;5063654;28;20032;-88
2021/12/16 04:58:26;;;;;;;24.98;11.45;;;;;;;9.16;72.78;103054.53;5067441;28;20519;-89
2021/12/16 05:00:52;;;;;;;23.92;11.82;;;;;;;9.01;73.02;103056.81;5062660;28;20397;-89
2021/12/16 05:03:18;;;;;;;29.20;11.60;;;;;;;9.01;72.90;103054.22;5041577;28;20037;-89
2021/12/16 05:05:44;;;;;;;23.92;12.13;;;;;;;8.97;73.15;103061.06;5046119;28;20040;-89
2021/12/16 05:08:09;;;;;;;24.05;11.07;;;;;;;9.01;72.83;103062.00;5033127;28;20633;-89
2021/12/16 05:10:35;;;;;;;28.67;11.73;;;;;;;9.00;72.40;103055.94;5047130;28;20039;-89
2021/12/16 05:13:04;;;;;;;23.67;10.82;;;;;;;8.85;73.13;103053.00;5065585;28;20048;-89
2021/12/16 05:15:33;;;;;;;27.08;11.13;;;;;;;8.94;72.12;103052.31;5062753;28;20730;-89
2021/12/16 05:18:03;;;;;;;23.15;11.05;;;;;;;8.78;73.09;103051.09;5062326;28;20040;-89
2021/12/16 05:20:33;;;;;;;26.27;11.50;;;;;;;8.80;72.41;103049.41;5046517;28;20060;-89
2021/12/16 05:28:13;;;;;;;22.17;10.40;;;;;;;8.69;72.40;103044.00;5064464;28;20033;-89
2021/12/16 05:30:38;;;;;;;24.60;10.23;;;;;;;8.53;72.27;103039.31;5064573;28;20041;-89
2021/12/16 05:33:05;;;;;;;21.00;11.40;;;;;;;8.50;72.36;103041.84;5064570;28;20404;-89
2021/12/16 05:35:34;;;;;;;23.23;10.07;;;;;;;8.58;72.19;103045.47;5029489;28;20025;-89
2021/12/16 05:38:00;;;;;;;18.95;10.23;;;;;;;8.56;72.53;103043.69;5065720;28;20109;-89
2021/12/16 05:40:28;;;;;;;22.48;10.70;;;;;;;8.58;72.37;103050.66;5067733;28;20465;-89
2021/12/16 05:43:00;;;;;;;22.20;10.43;;;;;;;8.70;72.01;103056.13;5044173;28;20029;-89
2021/12/16 05:45:27;;;;;;;22.70;10.43;;;;;;;8.75;71.92;103051.03;5060293;28;20166;-89
2021/12/16 05:47:56;;;;;;;21.02;9.07;;;;;;;8.63;72.18;103045.56;5060350;28;20028;-89
2021/12/16 05:50:23;;;;;;;22.55;10.25;;;;;;;8.78;71.79;103048.50;5044895;28;20025;-89
2021/12/16 05:52:48;;;;;;;22.00;10.00;;;;;;;8.58;71.92;103058.44;5060677;28;20060;-89
2021/12/16 05:55:15;;;;;;;21.45;11.13;;;;;;;8.63;72.09;103064.59;5048337;28;20696;-89
2021/12/16 05:57:44;;;;;;;22.95;10.43;;;;;;;8.69;72.55;103069.03;5065298;28;20040;-89
2021/12/16 06:00:20;;;;;;;25.35;11.55;;;;;;;8.51;72.74;103072.06;5043513;28;20040;-89
2021/12/16 06:02:46;;;;;;;21.63;10.88;;;;;;;8.69;72.22;103074.22;5046372;28;20108;-89
2021/12/16 06:05:11;;;;;;;23.67;11.57;;;;;;;8.67;72.71;103074.19;5063925;28;20575;-89
2021/12/16 06:07:37;;;;;;;23.83;11.88;;;;;;;8.62;72.48;103087.88;5046504;28;20044;-89
2021/12/16 06:10:04;;;;;;;25.73;11.48;;;;;;;8.82;72.67;103081.44;5050328;28;20492;-89
2021/12/16 06:12:30;;;;;;;22.73;11.80;;;;;;;8.72;72.65;103085.53;5056715;28;20167;-89
2021/12/16 06:26:38;;;;;;;21.67;9.90;;;;;;;8.75;73.61;103100.25;4975451;28;20055;-89
2021/12/16 06:29:04;;;;;;;19.35;9.38;;;;;;;8.92;72.77;103088.56;5044443;28;20462;-89
2021/12/16 06:31:29;;;;;;;21.55;10.02;;;;;;;8.76;73.51;103110.69;5066917;28;20119;-89
2021/12/16 06:33:55;;;;;;;20.83;9.68;;;;;;;8.84;73.25;103104.78;5047932;28;20044;-89
2021/12/16 06:36:21;;;;;;;19.13;9.45;;;;;;;8.86;72.95;103108.31;5049249;28;20052;-89
2021/12/16 06:38:47;;;;;;;17.30;8.45;;;;;;;8.90;72.98;103110.13;5031057;28;20067;-89
2021/12/16 06:41:13;;;;;;;16.67;10.23;;;;;;;8.93;72.97;103108.47;5067495;28;20044;-89
2021/12/16 06:43:38;;;;;;;22.38;9.75;;;;;;;9.00;72.41;103118.16;5067633;28;20107;-89
2021/12/16 06:46:08;;;;;;;15.43;8.57;;;;;;;8.87;73.27;103118.69;5066481;28;20127;-89
2021/12/16 06:48:38;;;;;;;24.65;10.23;;;;;;;8.90;72.79;103118.78;5047859;28;20050;-89
2021/12/16 06:51:09;;;;;;;20.90;10.70;;;;;;;9.02;73.31;103125.94;5048892;28;20500;-89
2021/12/16 06:53:52;;;;;;;20.17;11.13;;;;;;;8.99;72.94;103131.06;5068870;28;20127;-89
2021/12/16 06:56:28;;;;;;;19.48;9.48;;;;;;;8.98;72.75;103126.75;5057648;28;20124;-89
2021/12/16 06:59:20;;;;;;;18.02;9.02;;;;;;;8.82;73.12;103135.88;5060703;28;20051;-90
2021/12/16 07:02:00;;;;;;;16.35;9.18;;;;;;;9.01;72.81;103137.19;5036894;28;20135;-88
2021/12/16 07:04:25;;;;;;;23.85;10.85;;;;;;;8.93;72.82;103143.88;5030747;28;20052;-89
2021/12/16 07:06:51;;;;;;;23.25;10.60;;;;;;;8.81;73.54;103147.06;5027747;28;20457;-89
2021/12/16 07:09:18;;;;;;;20.58;11.05;;;;;;;8.83;73.27;103147.97;5064190;28;20037;-88
2021/12/16 07:11:48;;;;;;;21.30;11.68;;;;;;;8.94;72.95;103146.53;5056994;28;20033;-89
2021/12/16 07:14:16;;;;;;;17.55;10.30;;;;;;;8.83;72.88;103145.38;5066380;28;20046;-88
2021/12/16 07:16:48;;;;;;;23.23;10.98;;;;;;;8.91;73.21;103151.63;5044949;28;20025;-89
2021/12/16 07:19:14;;;;;;;21.55;10.23;;;;;;;8.76;73.56;103154.75;5061746;28;20043;-89
2021/12/16 07:21:42;;;;;;;22.02;10.50;;;;;;;8.64;73.50;103159.63;5068336;28;20032;-88
2021/12/16 07:24:11;;;;;;;23.73;10.90;;;;;;;8.83;72.96;103160.06;5048949;28;20024;-88
2021/12/16 07:26:37;;;;;;;21.25;11.00;;;;;;;8.64;72.93;103154.44;5064156;28;20139;-88
2021/12/16 07:29:04;;;;;;;20.88;10.20;;;;;;;8.62;72.38;103157.84;5061452;28;20036;-89
2021/12/16 07:31:30;;;;;;;20.67;10.13;;;;;;;8.66;72.49;103162.22;5059577;28;20049;-89
2021/12/16 07:33:57;;;;;;;19.00;9.10;;;;;;;8.59;71.89;103161.19;5061556;28;20048;-88
2021/12/16 07:36:24;;;;;;;19.75;9.40;;;;;;;8.60;71.52;103152.59;5030454;28;20477;-88
2021/12/16 07:38:50;;;;;;;19.63;9.70;;;;;;;8.37;72.51;103158.91;5064448;28;20095;-88
2021/12/16 07:41:20;;;;;;;20.92;9.82;;;;;;;8.50;72.10;103167.88;5059778;28;20534;-88
2021/12/16 07:44:09;;;;;;;17.52;9.27;;;;;;;8.50;72.10;103173.94;5058876;28;20090;-88
2021/12/16 07:46:36;;;;;;;22.85;9.38;;;;;;;8.33;72.23;103182.03;5048167;28;20044;-88
2021/12/16 07:49:01;;;;;;;16.55;8.32;;;;;;;8.25;72.49;103182.75;5042707;28;20059;-88
2021/12/16 07:51:27;;;;;;;20.00;8.65;;;;;;;8.40;71.29;103197.84;5043104;28;20136;-88
2021/12/16 07:53:52;;;;;;;19.33;9.40;;;;;;;8.58;71.23;103195.72;5050443;28;20443;-88
2021/12/16 07:56:18;;;;;;;18.60;8.20;;;;;;;8.32;71.66;103194.16;5044713;28;20547;-88
2021/12/16 07:58:43;;;;;;;19.00;9.25;;;;;;;8.25;72.29;103203.47;5031671;28;20055;-88
2021/12/16 08:01:09;;;;;;;18.77;8.95;;;;;;;8.25;72.08;103207.75;5064489;28;20521;-88
2021/12/16 08:03:36;;;;;;;14.98;8.48;;;;;;;8.34;72.61;103209.75;5068302;28;20024;-88
2021/12/16 08:06:06;;;;;;;14.88;7.93;;;;;;;8.49;71.95;103213.63;5063918;28;20021;-88
2021/12/16 08:08:32;;;;;;;24.13;10.15;;;;;;;8.48;72.52;103218.75;5056271;28;20440;-88
2021/12/16 08:10:58;;;;;;;15.02;8.57;;;;;;;8.62;72.63;103214.84;5063779;28;20032;-88
2021/12/16 08:13:24;;;;;;;19.33;8.40;;;;;;;8.41;72.90;103222.03;5062064;28;20036;-88
2021/12/16 08:15:51;;;;;;;22.35;8.95;;;;;;;8.38;72.80;103228.00;5042362;28;20071;-88
2021/12/16 08:18:17;;;;;;;19.63;9.23;;;;;;;8.43;73.54;103222.94;5057108;28;20029;-88
2021/12/16 08:20:43;;;;;;;19.25;8.30;;;;;;;8.45;73.27;103227.31;5045595;28;20024;-88
2021/12/16 08:23:08;;;;;;;18.70;8.10;;;;;;;8.51;73.00;103224.91;5062870;28;20493;-88
2021/12/16 08:25:37;;;;;;;17.67;8.48;;;;;;;8.47;72.58;103225.66;5032684;28;20039;-88
2021/12/16 08:28:05;;;;;;;20.88;8.68;;;;;;;8.42;72.69;103223.75;5044898;28;20029;-88
2021/12/16 08:30:35;;;;;;;20.52;9.30;;;;;;;8.50;72.80;103233.53;5045216;28;20029;-89
2021/12/16 08:33:05;;;;;;;17.45;8.05;;;;;;;8.41;73.15;103234.97;5041332;28;20370;-88
2021/12/16 08:35:32;;;;;;;15.50;8.50;;;;;;;8.49;72.86;103228.28;5032563;28;20090;-89
2021/12/16 08:37:57;;;;;;;14.60;7.45;;;;;;;8.53;72.72;103240.50;5060047;28;20040;-89
2021/12/16 08:40:24;;;;;;;13.52;7.13;;;;;;;8.61;72.56;103241.56;5061795;28;20036;-88
2021/12/16 08:42:50;;;;;;;18.63;7.93;;;;;;;8.52;72.99;103239.63;5029846;28;20029;-88
2021/12/16 08:45:22;;;;;;;18.95;7.82;;;;;;;8.41;73.62;103242.75;5027885;28;20586;-88
2021/12/16 08:47:47;;;;;;;14.18;8.10;;;;;;;8.52;73.19;103244.78;5045023;28;20111;-88
2021/12/16 08:50:17;;;;;;;15.75;8.05;;;;;;;8.51;73.84;103250.81;5044432;28;20132;-88
2021/12/16 08:52:44;;;;;;;17.15;8.38;;;;;;;8.67;73.50;103265.03;5032348;28;20129;-88
2021/12/16 08:55:11;;;;;;;16.27;8.93;;;;;;;8.78;72.65;103256.72;5062463;28;20093;-88
2021/12/16 08:57:36;;;;;;;20.10;7.90;;;;;;;8.57;73.45;103252.66;5052254;28;21264;-88
2021/12/16 09:00:07;;;;;;;17.13;8.25;;;;;;;8.67;72.97;103260.75;5037702;28;20037;-88
2021/12/16 09:02:32;;;;;;;18.63;8.57;;;;;;;8.75;73.00;103255.75;5050296;28;20020;-88
2021/12/16 09:04:58;;;;;;;20.00;8.95;;;;;;;8.69;73.42;103258.19;5048410;28;20044;-88
2021/12/16 09:07:23;;;;;;;21.33;9.57;;;;;;;8.73;73.14;103254.84;5027513;28;20091;-88
2021/12/16 09:09:49;;;;;;;21.80;10.30;;;;;;;8.74;73.50;103254.03;5032427;28;20523;-88
2021/12/16 09:14:58;;;;;;;22.90;9.95;;;;;;;8.82;73.55;103252.50;5064693;28;20047;-88
2021/12/16 09:17:24;;;;;;;29.75;11.63;;;;;;;8.71;73.75;103253.94;5042856;28;20071;-88
2021/12/16 09:19:52;;;;;;;26.88;12.18;;;;;;;8.63;73.84;103255.44;5024918;28;20052;-88
2021/12/16 09:22:19;;;;;;;25.33;12.02;;;;;;;8.53;74.11;103256.94;5042820;28;20033;-88
2021/12/16 09:24:46;;;;;;;28.98;11.07;;;;;;;8.69;73.91;103266.84;5048174;28;20032;-89
2021/12/16 09:27:13;;;;;;;26.63;11.27;;;;;;;8.75;73.50;103269.59;5060508;28;20133;-88
2021/12/16 09:29:39;;;;;;;28.42;12.35;;;;;;;8.58;74.61;103280.34;5065660;28;20020;-88
2021/12/16 09:32:06;;;;;;;25.98;11.20;;;;;;;8.74;73.93;103277.34;5042898;28;20634;-88
2021/12/16 09:34:33;;;;;;;24.52;12.02;;;;;;;8.83;73.91;103281.88;5059524;28;20037;-88
2021/12/16 09:36:58;;;;;;;24.35;10.98;;;;;;;8.71;74.36;103285.88;5028530;28;20374;-88
2021/12/16 09:39:26;;;;;;;28.02;10.43;;;;;;;8.87;75.00;103294.94;5034728;28;20036;-88
2021/12/16 09:41:54;;;;;;;27.80;12.07;;;;;;;8.94;75.10;103299.47;5062509;28;20032;-88
2021/12/16 09:44:20;;;;;;;26.05;11.60;;;;;;;9.07;74.75;103311.88;5068520;28;20044;-88
2021/12/16 09:46:48;;;;;;;27.35;10.93;;;;;;;9.08;75.15;103310.19;5048050;28;20111;-88
2021/12/16 09:49:15;;;;;;;29.77;13.02;;;;;;;9.09;75.31;103312.84;5048744;28;20037;-88
2021/12/16 09:51:43;;;;;;;29.02;12.75;;;;;;;9.16;74.98;103317.31;5049257;28;20040;-88
2021/12/16 09:54:12;;;;;;;26.88;12.43;;;;;;;9.21;74.67;103313.16;5035503;28;20465;-88
2021/12/16 09:56:41;;;;;;;33.15;12.77;;;;;;;9.27;74.74;103315.88;5062887;28;21150;-89
2021/12/16 09:59:10;;;;;;;29.00;13.05;;;;;;;9.27;74.55;103315.88;5066635;28;20041;-88
2021/12/16 10:01:37;;;;;;;28.85;12.52;;;;;;;9.26;74.64;103314.13;5048434;28;20032;-88
2021/12/16 10:04:06;;;;;;;34.45;12.70;;;;;;;9.24;75.30;103307.16;5069030;28;20040;-88
2021/12/16 10:06:34;;;;;;;30.55;14.25;;;;;;;9.35;74.41;103311.75;5044809;28;20033;-88
2021/12/16 10:09:01;;;;;;;39.67;15.32;;;;;;;9.31;74.27;103320.28;5062182;28;20024;-88
2021/12/16 10:11:27;;;;;;;38.45;14.93;;;;;;;9.48;74.16;103306.88;5067977;28;20501;-88
2021/12/16 10:14:16;;;;;;;36.63;14.35;;;;;;;9.38;74.29;103317.84;5069763;28;20044;-88
2021/12/16 10:19:31;;;;;;;32.85;14.05;;;;;;;9.38;74.08;103310.06;5066035;28;20040;-88
2021/12/16 10:22:33;;;;;;;29.90;13.70;;;;;;;9.50;74.12;103319.03;5069991;28;20040;-88
2021/12/16 10:25:30;;;;;;;30.27;14.57;;;;;;;9.49;74.18;103318.97;5047481;28;20040;-88
2021/12/16 10:27:57;;;;;;;39.08;15.68;;;;;;;9.36;74.38;103313.50;5051603;28;20171;-88
2021/12/16 10:30:25;;;;;;;37.08;16.08;;;;;;;9.45;74.30;103310.28;5062179;28;20547;-88
2021/12/16 10:32:51;;;;;;;42.55;17.35;;;;;;;9.50;73.54;103310.38;5057154;28;20025;-86
2021/12/16 10:35:29;;;;;;;38.95;16.67;;;;;;;9.48;74.17;103312.94;5068742;28;20048;-88
2021/12/16 10:37:58;;;;;;;39.20;16.80;;;;;;;9.54;73.48;103305.31;5028159;28;20055;-88
2021/12/16 10:40:40;;;;;;;45.67;17.33;;;;;;;9.54;73.74;103309.59;5045378;28;20119;-89
2021/12/16 10:43:12;;;;;;;38.42;17.13;;;;;;;9.71;72.91;103300.50;5068195;28;20060;-88
2021/12/16 10:45:40;;;;;;;40.53;17.20;;;;;;;9.57;73.49;103299.31;5060822;28;20029;-88
2021/12/16 10:48:21;;;;;;;38.92;17.77;;;;;;;9.63;73.09;103308.06;5043764;28;20039;-87
2021/12/16 10:51:06;;;;;;;44.47;19.05;;;;;;;9.65;72.37;103301.22;5068537;28;20105;-88
2021/12/16 10:53:52;;;;;;;39.10;16.85;;;;;;;9.76;72.81;103298.88;5063470;28;20041;-88
2021/12/16 10:56:41;;;;;;;38.35;15.43;;;;;;;9.74;72.66;103290.19;5068056;28;20029;-89
2021/12/16 10:59:20;;;;;;;35.17;16.02;;;;;;;9.78;72.70;103290.25;5059691;28;20566;-88
2021/12/16 11:01:48;;;;;;;40.65;16.90;;;;;;;9.84;72.41;103289.53;5065662;28;20087;-89
2021/12/16 11:04:26;;;;;;;34.65;15.43;;;;;;;9.85;72.41;103286.09;5048583;28;20493;-89
2021/12/16 11:07:05;;;;;;;37.08;15.68;;;;;;;9.80;72.37;103279.94;5047613;28;20055;-88
2021/12/16 11:09:45;;;;;;;30.83;14.77;;;;;;;9.90;72.25;103279.31;5068384;28;20036;-88
2021/12/16 11:12:19;;;;;;;33.78;13.85;;;;;;;9.82;72.65;103273.03;5059058;28;20021;-88
2021/12/16 11:15:07;;;;;;;35.00;15.20;;;;;;;9.83;72.58;103274.81;5046893;28;20016;-88
2021/12/16 11:17:50;;;;;;;47.22;17.15;;;;;;;9.89;72.49;103273.25;5048051;28;20481;-89
2021/12/16 11:20:37;;;;;;;40.58;17.52;;;;;;;9.99;71.26;103276.06;5064379;28;20029;-89
2021/12/16 11:23:07;;;;;;;47.97;20.00;;;;;;;9.99;71.01;103270.88;5061291;28;20116;-89
2021/12/16 11:25:41;;;;;;;44.60;18.05;;;;;;;9.90;71.39;103275.00;5062579;28;20131;-89
2021/12/16 11:28:15;;;;;;;45.00;19.35;;;;;;;9.90;72.15;103279.31;5069138;28;20068;-89
2021/12/16 11:30:56;;;;;;;44.20;19.48;;;;;;;9.93;72.28;103281.13;5045458;28;20044;-89
2021/12/16 11:33:29;;;;;;;48.53;18.80;;;;;;;9.99;71.96;103282.09;5062866;28;20089;-89
2021/12/16 11:36:03;;;;;;;43.50;18.10;;;;;;;10.00;71.39;103288.19;5062713;28;20047;-89
2021/12/16 11:38:34;;;;;;;43.55;17.83;;;;;;;9.99;71.10;103291.63;5049362;28;20478;-89
2021/12/16 11:41:03;;;;;;;44.45;20.02;;;;;;;9.92;71.25;103280.25;5045097;28;20033;-89
2021/12/16 11:43:53;;;;;;;49.08;18.65;;;;;;;9.98;71.38;103284.69;5068534;28;20083;-89
2021/12/16 11:46:24;;;;;;;51.63;19.38;;;;;;;10.04;70.65;103285.69;5058322;28;20029;-89
2021/12/16 11:48:52;;;;;;;44.85;18.40;;;;;;;10.09;71.75;103286.66;5026925;28;20032;-89
2021/12/16 11:51:24;;;;;;;45.53;19.08;;;;;;;10.03;71.45;103296.03;5043046;28;20055;-89
2021/12/16 11:53:55;;;;;;;45.10;18.15;;;;;;;9.89;71.84;103288.84;5047570;28;20024;-89
2021/12/16 11:56:37;;;;;;;43.40;17.73;;;;;;;9.98;71.48;103295.06;5047043;28;20036;-90
2021/12/16 11:59:03;;;;;;;35.63;16.27;;;;;;;10.01;71.19;103287.34;5062275;28;20116;-89
2021/12/16 12:01:29;;;;;;;40.67;17.63;;;;;;;9.98;71.65;103290.75;5046198;28;20119;-89
2021/12/16 12:04:02;;;;;;;43.45;19.17;;;;;;;10.04;70.62;103287.41;5063551;28;20119;-89
2021/12/16 12:06:30;;;;;;;44.65;17.13;;;;;;;10.00;70.71;103290.78;5041216;28;20032;-89
2021/12/16 12:08:57;;;;;;;45.55;17.92;;;;;;;9.99;71.64;103289.03;5033510;28;20098;-88
2021/12/16 12:11:30;;;;;;;40.53;18.30;;;;;;;9.97;71.85;103286.41;5048299;28;20036;-89
2021/12/16 12:14:12;;;;;;;40.83;18.15;;;;;;;9.97;71.62;103286.41;5045585;28;20053;-89
2021/12/16 12:16:44;;;;;;;38.78;17.45;;;;;;;9.98;71.60;103282.97;5042519;28;20029;-88
2021/12/16 12:19:18;;;;;;;42.45;18.48;;;;;;;9.98;71.44;103284.69;5063841;28;20049;-89
2021/12/16 12:21:50;;;;;;;47.78;18.92;;;;;;;10.03;71.22;103283.03;5061684;28;20101;-89
2021/12/16 12:24:42;;;;;;;40.00;17.70;;;;;;;9.98;71.84;103287.28;5061541;28;20036;-88
2021/12/16 12:27:27;;;;;;;38.88;16.95;;;;;;;10.01;71.61;103285.63;5046369;28;20044;-88
2021/12/16 12:30:02;;;;;;;36.70;16.00;;;;;;;9.96;71.04;103279.44;5063931;28;20021;-88
2021/12/16 12:32:29;;;;;;;39.83;16.83;;;;;;;10.03;70.40;103278.72;5061451;28;20803;-88
2021/12/16 12:35:14;;;;;;;40.33;16.70;;;;;;;10.08;70.34;103269.31;5058012;28;20060;-89
2021/12/16 12:37:44;;;;;;;36.50;15.90;;;;;;;10.06;70.76;103275.31;5045880;28;20459;-89
2021/12/16 12:40:19;;;;;;;41.53;16.25;;;;;;;10.05;71.20;103277.03;5049730;28;20161;-90
2021/12/16 12:42:45;;;;;;;41.58;16.23;;;;;;;10.04;71.58;103272.72;5061584;28;20166;-89
2021/12/16 12:45:15;;;;;;;38.03;16.95;;;;;;;10.13;70.43;103282.41;5042446;28;20116;-89
2021/12/16 12:47:48;;;;;;;39.35;16.60;;;;;;;10.11;70.24;103284.06;5059300;28;20094;-89
2021/12/16 12:50:34;;;;;;;38.15;15.93;;;;;;;10.19;69.75;103273.03;5067924;28;20082;-89
2021/12/16 12:53:19;;;;;;;39.28;15.65;;;;;;;10.14;69.03;103279.81;5046907;28;20032;-89
2021/12/16 12:55:46;;;;;;;39.67;16.48;;;;;;;10.06;70.35;103280.50;5058317;28;20108;-89
2021/12/16 12:58:15;;;;;;;37.60;16.27;;;;;;;10.13;69.55;103277.22;5060181;28;20517;-89
2021/12/16 13:00:46;;;;;;;42.42;16.52;;;;;;;10.06;69.93;103285.72;5038602;28;20033;-89
2021/12/16 13:03:22;;;;;;;42.58;16.23;;;;;;;10.09;70.30;103281.47;5072420;28;20020;-90
2021/12/16 13:05:53;;;;;;;40.90;15.57;;;;;;;10.09;69.86;103284.06;5038568;28;20029;-90
2021/12/16 13:08:25;;;;;;;42.35;17.10;;;;;;;10.02;70.21;103276.97;5061843;28;20136;-90
2021/12/16 13:10:51;;;;;;;34.42;15.80;;;;;;;9.95;70.96;103282.91;5061662;28;20051;-90
2021/12/16 13:28:03;;;;;;;45.53;17.98;;;;;;;10.11;70.84;103281.47;5061673;28;20039;-90
2021/12/16 13:30:38;;;;;;;41.40;17.33;;;;;;;10.13;70.56;103277.22;5050919;28;20052;-89
2021/12/16 13:33:24;;;;;;;40.40;18.42;;;;;;;10.14;70.43;103279.81;5047273;28;20029;-89
2021/12/16 13:36:01;;;;;;;35.88;15.98;;;;;;;10.07;72.08;103274.50;5050284;28;20021;-90
2021/12/16 13:38:37;;;;;;;40.95;17.10;;;;;;;10.10;71.74;103280.63;5036481;28;20632;-90
2021/12/16 13:41:09;;;;;;;44.60;17.80;;;;;;;10.08;71.95;103278.84;5054570;28;20085;-90
2021/12/16 13:43:37;;;;;;;39.30;18.48;;;;;;;10.10;71.29;103285.81;5050502;28;20087;-90
2021/12/16 13:46:31;;;;;;;39.92;16.88;;;;;;;10.07;71.87;103284.88;5051075;28;20086;-90
2021/12/16 14:08:46;;;;;;;42.30;17.20;;;;;;;10.00;72.75;103316.75;5064504;28;20440;-90
2021/12/16 14:12:39;;;;;;;37.03;14.90;;;;;;;9.99;72.87;103310.66;5050293;28;20051;-91
2021/12/16 14:23:12;;;;;;;39.63;16.27;;;;;;;9.99;71.78;103323.66;5061295;28;20150;-90
2021/12/16 14:26:05;;;;;;;36.75;15.02;;;;;;;9.95;72.02;103319.25;5066253;28;20063;-90
2021/12/16 14:40:02;;;;;;;35.67;15.98;;;;;;;9.83;73.11;103313.75;5062980;28;20035;-91
2021/12/16 14:50:27;;;;;;;43.08;17.98;;;;;;;9.99;72.83;103315.00;5049361;28;20393;-91
2021/12/16 14:52:54;;;;;;;39.95;16.25;;;;;;;9.88;73.32;103313.00;5045678;28;20090;-91
2021/12/16 14:55:20;;;;;;;39.15;14.85;;;;;;;9.96;73.09;103310.59;5057281;28;20043;-90
2021/12/16 14:57:49;;;;;;;38.40;16.60;;;;;;;9.90;73.39;103318.25;5044901;28;20033;-90
2021/12/16 15:00:21;;;;;;;34.10;15.60;;;;;;;9.84;73.56;103325.88;5066712;28;20037;-90
2021/12/16 15:02:48;;;;;;;42.22;16.50;;;;;;;9.90;73.35;103318.25;5066308;28;20024;-90
2021/12/16 15:05:25;;;;;;;34.05;16.25;;;;;;;9.82;73.92;103324.97;5030896;28;20181;-90
2021/12/16 15:07:52;;;;;;;38.22;16.40;;;;;;;9.84;73.84;103323.28;5063331;28;20033;-91
2021/12/16 15:10:18;;;;;;;40.70;16.92;;;;;;;9.81;74.13;103323.22;5025010;28;20382;-90